Weather observations for the past three days for
San Luis Obispo, San Luis Obispo County-Mc Chesney Field
Imperial (Metric)
Date Time (pdt) Wind (mph) Vis. (mi.) Weather Sky Cond. Temperature (ºF) Relative Humidity Wind Chill (°F) Heat Index (°F) Pressure Precipitation (in)
Air Dwpt 6 hour altimeter (in) sea level (mb) 1 hr 3 hr 6 hr
Max. Min.
01 13:56 NW 21 G 26 10.00 Fair and Breezy CLR 72 48.9 44% 30.01 1015.9
01 12:56 NW 9 G 17 10.00 Fair CLR 71.1 48 44% 30.02 1016.3
01 11:56 N 5 10.00 Fair CLR 69.1 46.9 45% 30.03 1016.7
01 10:56 NW 12 G 21 10.00 A Few Clouds FEW030 69.1 48 70 55.9 47% 30.03 1016.9
01 09:56 NW 10 G 16 10.00 A Few Clouds FEW030 66.9 48.9 53% 30.03 1016.6
01 08:56 W 3 10.00 Fair CLR 62.1 52 70% 30.02 1016.5
01 07:56 Calm 10.00 Fair CLR 57.9 52 81% 30.02 1016.5
01 06:56 Calm 10.00 A Few Clouds FEW033 55.9 52 87% 30.01 1016.0
01 05:56 Calm 10.00 Smoke OVC032 57 52 83% 30 1015.7
01 04:56 SE 5 10.00 Smoke OVC029 57.9 52 59 55 81% 29.99 1015.4
01 03:56 SE 3 10.00 Smoke OVC026 57.9 52 81% 29.99 1015.3
01 02:56 SE 3 10.00 Smoke OVC025 57.9 52 81% 29.99 1015.3
01 01:56 SE 3 10.00 Smoke BKN023 OVC028 57 52 83% 29.99 1015.3
01 00:56 Calm 10.00 Smoke FEW019 55 51.1 87% 29.98 1015.0
31 23:56 Calm 10.00 Smoke SCT025 57.9 53.1 84% 29.98 1015.2
31 22:56 W 3 10.00 Smoke OVC016 57.9 52 66.9 57.9 81% 29.98 1015.2
31 21:56 N 6 10.00 Smoke BKN017 60.1 53.1 78% 29.97 1014.8
31 20:56 NW 6 10.00 Smoke CLR 59 52 78% 29.97 1014.7
31 18:56 NW 16 10.00 Smoke CLR 62.1 52 70% 29.93 1013.5
31 17:56 NW 16 10.00 Smoke CLR 64.9 52 63% 29.93 1013.2
31 15:56 NW 21 9.00 Smoke and Breezy CLR 68 52 57% 29.94 1013.6
31 13:56 NW 12 10.00 Fair CLR 71.1 52 51% 29.95 1013.9
31 12:56 Vrbl 5 10.00 Fair CLR 71.1 51.1 49% 29.96 1014.3
31 11:56 Vrbl 3 10.00 Fair CLR 66 51.1 59% 29.99 1015.2
31 10:56 Vrbl 5 9.00 Fair CLR 63 50 63 57 63% 30 1015.7
31 09:56 N 3 7.00 Overcast OVC019 60.1 50 70% 29.99 1015.5
31 08:56 W 3 6.00 Overcast with Haze OVC015 57.9 51.1 78% 29.98 1015.2
31 07:56 NW 6 7.00 Overcast OVC013 57 51.1 81% 29.97 1014.8
31 06:56 NW 5 8.00 Overcast OVC012 57 52 83% 29.95 1014.1
31 05:56 NW 3 6.00 Overcast with Haze OVC012 57.9 52 81% 29.94 1013.8
31 04:56 Vrbl 3 5.00 Overcast with Haze OVC012 57.9 53.1 59 57.9 84% 29.93 1013.4
31 03:56 NW 6 5.00 Overcast with Haze OVC012 57.9 53.1 84% 29.93 1013.5
31 02:56 NW 6 9.00 Overcast OVC013 57.9 53.1 84% 29.93 1013.4
31 01:56 NW 6 9.00 Overcast OVC012 59 54 83% 29.94 1013.6
31 00:56 NW 9 8.00 Overcast OVC011 59 54 83% 29.94 1013.8
30 23:56 NW 8 8.00 Overcast OVC011 59 54 83% 29.94 1013.7
30 22:56 N 10 8.00 Overcast OVC011 59 54 69.1 57.9 83% 29.94 1013.7
30 21:56 NW 12 8.00 Mostly Cloudy BKN011 59 54 83% 29.95 1014.0
30 20:56 NW 13 9.00 A Few Clouds FEW011 59 54 83% 29.94 1013.7
30 19:56 NW 13 10.00 Fair CLR 59 54 83% 29.92 1013.0
30 18:56 NW 17 10.00 Fair CLR 62.1 54 75% 29.92 1013.0
30 17:56 NW 21 10.00 Fair and Breezy CLR 64.9 53.1 66% 29.91 1012.8
30 16:56 NW 18 10.00 Fair CLR 69.1 53.1 73 66.9 57% 29.9 1012.5
30 15:56 NW 17 G 30 10.00 Fair CLR 71.1 53.1 53% 29.91 1012.7
30 14:56 NW 16 10.00 Fair CLR 72 53.1 52% 29.93 1013.2
30 13:56 NW 20 10.00 Fair CLR 72 53.1 52% 29.93 1013.5
30 12:56 NW 17 10.00 Fair CLR 71.1 53.1 53% 29.94 1013.6
30 11:56 NW 16 10.00 Fair CLR 71.1 54 55% 29.95 1013.9
30 10:56 NE 3 10.00 Fair CLR 66.9 53.1 66.9 51.1 61% 29.96 1014.2
30 09:56 Calm 7.00 Fair CLR 60.1 54 80% 29.95 1014.0
30 08:56 W 3 3.00 Fog/Mist OVC004 55 54 96% 29.95 1014.2
30 07:56 Calm 0.25 Fog VV003 52 52 100% 29.95 1014.1
30 06:56 NW 5 0.15 Fog VV002 51.1 51.1 100% 29.93 1013.5
30 05:56 Calm 0.25 Fog VV002 52 51.1 97% 29.93 1013.4
30 04:56 Calm 8.00 Overcast OVC006 51.1 48.9 57 51.1 92% 29.92 1013.1
30 03:56 Calm 7.00 Fair CLR 51.1 48.9 92% 29.92 1013.1
30 02:56 SE 5 7.00 Fair CLR 52 50 93% 29.92 1013.0
30 01:56 E 7 7.00 Fair CLR 53.1 51.1 93% 29.92 1012.9
30 00:56 E 5 8.00 Fair CLR 53.1 51.1 93% 29.92 1013.1
29 23:56 SE 3 8.00 Fair CLR 55.9 52 87% 29.93 1013.3
29 22:56 Calm 8.00 Fair CLR 55.9 54 70 55.9 93% 29.93 1013.4
29 21:56 W 3 9.00 Fair CLR 57.9 55 90% 29.94 1013.6
29 20:56 NW 9 9.00 Fair CLR 57.9 55 90% 29.93 1013.3
29 19:56 NW 16 9.00 Fair CLR 59 55 87% 29.91 1012.7
29 18:56 NW 15 8.00 Fair CLR 63 55 76% 29.9 1012.4
29 17:56 NW 17 8.00 Fair CLR 66 55 68% 29.91 1012.6
29 16:56 NW 22 9.00 Fair and Breezy CLR 68 55 72 66 63% 29.9 1012.3
29 15:56 NW 18 9.00 Fair CLR 71.1 55.9 59% 29.9 1012.5
29 14:56 NW 20 10.00 Fair CLR 72 55.9 57% 29.92 1013.1
Date Time (pdt) Wind (mph) Vis. (mi.) Weather Sky Cond. Air Dwpt Max. Min. Relative Humidity Wind Chill (°F) Heat Index (°F) altimeter (in) sea level (mb) 1 hr 3 hr 6 hr
6 hour
Temperature (ºF) Pressure Precipitation (in)